createdAt,value
2019-05-02T00:01:01.987Z,7.50
2019-05-02T00:03:30.905Z,7.50
2019-05-02T00:06:02.938Z,7.60
2019-05-02T00:08:33.205Z,7.60
2019-05-02T00:11:00.250Z,7.60
2019-05-02T00:13:29.115Z,7.60
2019-05-02T00:15:58.185Z,7.70
2019-05-02T00:18:27.116Z,7.60
2019-05-02T00:20:57.085Z,7.50
2019-05-02T00:23:27.941Z,7.50
2019-05-02T00:25:56.273Z,7.50
2019-05-02T00:28:24.736Z,7.40
2019-05-02T00:30:53.221Z,7.20
2019-05-02T00:33:21.687Z,7.10
2019-05-02T00:35:50.106Z,7.10
2019-05-02T00:38:18.554Z,7.10
2019-05-02T00:40:47.151Z,7.10
2019-05-02T00:43:15.568Z,7.10
2019-05-02T00:45:44.132Z,7.00
2019-05-02T00:48:23.144Z,6.90
2019-05-02T00:50:52.214Z,6.90
2019-05-02T00:53:20.569Z,6.80
2019-05-02T00:55:48.976Z,6.70
2019-05-02T00:58:17.500Z,6.80
2019-05-02T01:01:04.038Z,6.70
2019-05-02T01:03:34.125Z,6.80
2019-05-02T01:06:02.545Z,6.90
2019-05-02T01:08:35.420Z,7.10
2019-05-02T01:11:01.162Z,7.30
2019-05-02T01:13:29.603Z,7.40
2019-05-02T01:15:58.005Z,7.30
2019-05-02T01:18:26.460Z,7.40
2019-05-02T01:20:58.218Z,7.40
2019-05-02T01:23:27.645Z,7.50
2019-05-02T01:25:55.204Z,7.50
2019-05-02T01:28:28.395Z,7.60
2019-05-02T01:31:13.292Z,7.50
2019-05-02T01:33:43.595Z,7.50
2019-05-02T01:36:16.430Z,7.50
2019-05-02T01:38:48.442Z,7.50
2019-05-02T01:41:16.956Z,7.50
2019-05-02T01:43:45.387Z,7.50
2019-05-02T01:46:17.083Z,7.50
2019-05-02T01:48:45.735Z,7.50
2019-05-02T01:51:14.264Z,7.50
2019-05-02T01:53:42.689Z,7.40
2019-05-02T01:56:11.197Z,7.40
2019-05-02T01:58:39.617Z,7.20
2019-05-02T02:01:08.209Z,7.20
2019-05-02T02:03:40.538Z,7.30
2019-05-02T02:06:08.233Z,7.40
2019-05-02T02:08:37.077Z,7.40
2019-05-02T02:11:05.538Z,7.30
2019-05-02T02:13:36.510Z,7.40
2019-05-02T02:16:05.927Z,7.40
2019-05-02T02:18:36.156Z,7.30
2019-05-02T02:21:25.774Z,7.30
2019-05-02T02:23:54.926Z,7.30
2019-05-02T02:26:25.008Z,7.10
2019-05-02T02:28:53.682Z,6.90
2019-05-02T02:31:22.634Z,6.80
2019-05-02T02:33:51.153Z,6.80
2019-05-02T02:36:30.052Z,6.70
2019-05-02T02:38:49.856Z,6.70
2019-05-02T02:41:18.294Z,6.70
2019-05-02T02:43:48.417Z,6.70
2019-05-02T02:46:18.489Z,6.80
2019-05-02T02:48:46.896Z,6.80
2019-05-02T02:51:24.089Z,6.60
2019-05-02T02:53:45.566Z,6.40
2019-05-02T02:56:14.155Z,6.30
2019-05-02T02:58:47.924Z,6.20
2019-05-02T03:01:12.819Z,6.00
2019-05-02T03:03:41.492Z,5.90
2019-05-02T03:06:09.985Z,5.90
2019-05-02T03:08:45.739Z,5.90
2019-05-02T03:11:10.317Z,5.90
2019-05-02T03:13:52.324Z,5.90
2019-05-02T03:16:24.774Z,5.90
2019-05-02T03:18:53.258Z,5.90
2019-05-02T03:21:22.492Z,5.80
2019-05-02T03:24:01.350Z,5.70
2019-05-02T03:26:21.430Z,5.60
2019-05-02T03:28:57.625Z,5.50
2019-05-02T03:31:25.732Z,5.40
2019-05-02T03:33:59.095Z,5.50
2019-05-02T03:36:29.685Z,5.40
2019-05-02T03:38:50.902Z,5.40
2019-05-02T03:41:20.737Z,5.40
2019-05-02T03:43:50.204Z,5.30
2019-05-02T03:46:20.671Z,5.30
2019-05-02T03:48:48.991Z,5.30
2019-05-02T03:51:21.521Z,5.40
2019-05-02T03:53:47.874Z,5.40
2019-05-02T03:56:16.300Z,5.30
2019-05-02T03:58:48.506Z,5.20
2019-05-02T04:01:15.482Z,5.20
2019-05-02T04:03:44.271Z,5.10
2019-05-02T04:06:13.871Z,5.10
2019-05-02T04:08:43.964Z,5.10
2019-05-02T04:11:15.465Z,5.00
2019-05-02T04:13:43.894Z,5.00
2019-05-02T04:16:15.766Z,5.10
2019-05-02T04:18:54.533Z,5.10
2019-05-02T04:21:13.675Z,5.10
2019-05-02T04:23:42.760Z,5.10
2019-05-02T04:26:14.272Z,5.10
2019-05-02T04:28:45.414Z,5.10
2019-05-02T04:31:13.437Z,5.10
2019-05-02T04:33:42.018Z,5.10
2019-05-02T04:36:15.487Z,5.10
2019-05-02T04:38:46.986Z,5.10
2019-05-02T04:41:10.930Z,5.10
2019-05-02T04:43:43.109Z,5.10
2019-05-02T04:46:17.952Z,5.10
2019-05-02T04:48:44.225Z,5.10
2019-05-02T04:51:16.026Z,5.10
2019-05-02T04:53:45.013Z,5.20
2019-05-02T04:56:10.612Z,5.20
2019-05-02T04:58:40.730Z,5.20
2019-05-02T05:01:11.052Z,5.20
2019-05-02T05:03:39.518Z,5.30
2019-05-02T05:06:12.206Z,5.40
2019-05-02T05:08:38.947Z,5.60
2019-05-02T05:11:08.558Z,5.80
2019-05-02T05:13:37.414Z,6.10
2019-05-02T05:16:08.688Z,6.30
2019-05-02T05:18:37.848Z,6.30
2019-05-02T05:21:10.261Z,6.50
2019-05-02T05:23:40.997Z,6.60
2019-05-02T05:26:09.437Z,6.80
2019-05-02T05:28:40.466Z,7.00
2019-05-02T05:31:09.557Z,7.10
2019-05-02T05:33:37.995Z,7.30
2019-05-02T05:36:08.235Z,7.50
2019-05-02T05:38:40.312Z,7.70
2019-05-02T05:41:11.192Z,7.80
2019-05-02T05:43:38.110Z,7.80
2019-05-02T05:46:12.318Z,7.80
2019-05-02T05:48:40.615Z,8.00
2019-05-02T05:51:11.879Z,8.30
2019-05-02T05:53:40.608Z,8.70
2019-05-02T05:56:09.032Z,9.00
2019-05-02T05:58:39.770Z,9.30
2019-05-02T06:01:10.183Z,9.50
2019-05-02T06:03:41.513Z,9.70
2019-05-02T06:06:10.017Z,10.00
2019-05-02T06:08:38.077Z,10.20
2019-05-02T06:11:06.576Z,10.30
2019-05-02T06:13:37.875Z,10.40
2019-05-02T06:16:05.165Z,10.50
2019-05-02T06:18:36.429Z,10.50
2019-05-02T06:21:08.851Z,10.60
2019-05-02T06:23:36.397Z,10.70
2019-05-02T06:26:07.910Z,10.80
2019-05-02T06:28:36.478Z,11.10
2019-05-02T06:31:07.146Z,11.40
2019-05-02T06:33:34.913Z,11.60
2019-05-02T06:36:03.404Z,11.80
2019-05-02T06:38:31.973Z,11.90
2019-05-02T06:41:00.405Z,11.90
2019-05-02T06:43:28.827Z,11.90
2019-05-02T06:45:57.267Z,11.90
2019-05-02T06:48:25.709Z,11.90
2019-05-02T06:50:54.133Z,11.90
2019-05-02T06:53:22.579Z,11.90
2019-05-02T06:55:50.996Z,11.90
2019-05-02T06:58:19.454Z,11.80
2019-05-02T07:00:57.561Z,12.00
2019-05-02T07:03:18.040Z,12.10
2019-05-02T07:05:48.933Z,12.30
2019-05-02T07:08:16.734Z,12.40
2019-05-02T07:10:45.488Z,12.60
2019-05-02T07:13:14.984Z,12.70
2019-05-02T07:15:48.325Z,12.80
2019-05-02T07:18:19.995Z,12.90
2019-05-02T07:20:48.414Z,13.10
2019-05-02T07:23:18.341Z,13.30
2019-05-02T07:25:47.010Z,13.50
2019-05-02T07:28:15.418Z,13.60
2019-05-02T07:30:44.006Z,13.80
2019-05-02T07:33:12.441Z,13.90
2019-05-02T07:35:40.888Z,14.00
2019-05-02T07:38:09.333Z,14.10
2019-05-02T07:40:37.860Z,14.30
2019-05-02T07:43:06.278Z,14.50
2019-05-02T07:45:34.729Z,14.70
2019-05-02T07:48:03.431Z,14.80
2019-05-02T07:50:31.880Z,15.10
2019-05-02T07:53:04.522Z,15.10
2019-05-02T07:55:30.893Z,15.10
2019-05-02T07:58:01.950Z,15.30
2019-05-02T08:00:37.163Z,15.50
2019-05-02T08:03:05.072Z,15.70
2019-05-02T08:05:33.048Z,15.70
2019-05-02T08:08:01.482Z,15.70
2019-05-02T08:10:29.987Z,15.80
2019-05-02T08:12:58.419Z,15.90
2019-05-02T08:15:26.855Z,15.90
2019-05-02T08:17:55.453Z,16.00
2019-05-02T08:20:23.932Z,16.10
2019-05-02T08:22:52.468Z,16.00
2019-05-02T08:25:21.083Z,16.10
2019-05-02T08:27:51.152Z,16.10
2019-05-02T08:30:21.740Z,16.10
2019-05-02T08:32:50.445Z,16.20
2019-05-02T08:35:18.864Z,16.30
2019-05-02T08:37:47.397Z,16.20
2019-05-02T08:40:16.061Z,16.10
2019-05-02T08:42:44.493Z,16.00
2019-05-02T08:45:13.350Z,15.90
2019-05-02T08:47:41.797Z,15.80
2019-05-02T08:50:10.973Z,15.80
2019-05-02T08:52:42.406Z,15.90
2019-05-02T08:55:10.947Z,16.10
2019-05-02T08:57:39.568Z,16.30
2019-05-02T09:00:10.333Z,16.30
2019-05-02T09:02:41.473Z,16.30
2019-05-02T09:05:09.165Z,16.40
2019-05-02T09:07:40.053Z,16.40
2019-05-02T09:10:09.689Z,16.40
2019-05-02T09:12:42.276Z,16.40
2019-05-02T09:15:09.049Z,16.50
2019-05-02T09:17:38.873Z,16.50
2019-05-02T09:20:15.005Z,16.50
2019-05-02T09:22:38.312Z,16.50
2019-05-02T09:25:08.075Z,16.60
2019-05-02T09:27:36.686Z,16.70
2019-05-02T09:30:17.132Z,16.70
2019-05-02T09:32:42.638Z,16.80
2019-05-02T09:35:11.681Z,17.00
2019-05-02T09:37:41.875Z,17.30
2019-05-02T09:40:14.999Z,17.30
2019-05-02T09:42:43.055Z,17.20
2019-05-02T09:45:15.926Z,17.20
2019-05-02T09:47:56.633Z,17.40
2019-05-02T09:50:20.515Z,17.50
2019-05-02T09:52:47.674Z,17.60
2019-05-02T09:55:17.353Z,17.70
2019-05-02T09:57:46.147Z,17.70
2019-05-02T10:00:36.242Z,17.80
2019-05-02T10:03:04.744Z,17.80
2019-05-02T10:05:33.195Z,17.90
2019-05-02T10:08:02.972Z,17.90
2019-05-02T10:10:37.051Z,18.00
2019-05-02T10:13:03.038Z,18.10
2019-05-02T10:15:32.700Z,18.10
2019-05-02T10:18:08.825Z,18.10
2019-05-02T10:20:36.238Z,18.30
2019-05-02T10:23:02.401Z,18.40
2019-05-02T10:25:38.423Z,18.30
2019-05-02T10:28:02.119Z,18.20
2019-05-02T10:30:35.596Z,18.30
2019-05-02T10:33:03.030Z,18.40
2019-05-02T10:35:40.363Z,18.60
2019-05-02T10:38:09.498Z,18.70
2019-05-02T10:40:35.877Z,18.70
2019-05-02T10:43:04.775Z,18.80
2019-05-02T10:45:33.220Z,18.80
2019-05-02T10:48:02.265Z,18.90
2019-05-02T10:50:32.939Z,19.10
2019-05-02T10:53:03.495Z,19.10
2019-05-02T10:55:33.234Z,19.00
2019-05-02T10:58:02.042Z,19.10
2019-05-02T11:00:32.567Z,19.10
2019-05-02T11:03:12.057Z,18.80
2019-05-02T11:05:57.946Z,18.90
2019-05-02T11:08:27.508Z,18.80
2019-05-02T11:10:56.030Z,18.80
2019-05-02T11:13:26.085Z,18.90
2019-05-02T11:16:12.633Z,18.80
2019-05-02T11:18:59.330Z,18.80
2019-05-02T11:21:28.011Z,18.90
2019-05-02T11:23:56.582Z,18.90
2019-05-02T11:26:25.469Z,18.90
2019-05-02T11:28:54.042Z,18.90
2019-05-02T11:31:22.499Z,19.20
2019-05-02T11:33:52.668Z,19.30
2019-05-02T11:36:22.382Z,19.10
2019-05-02T11:38:59.906Z,19.20
2019-05-02T11:41:22.469Z,19.40
2019-05-02T11:43:54.074Z,19.40
2019-05-02T11:46:22.129Z,19.40
2019-05-02T11:48:56.428Z,19.20
2019-05-02T11:51:22.696Z,19.10
2019-05-02T11:53:52.662Z,19.10
2019-05-02T11:56:22.202Z,19.10
2019-05-02T11:58:52.808Z,19.20
2019-05-02T12:01:35.001Z,19.20
2019-05-02T12:03:52.622Z,19.60
2019-05-02T12:06:22.536Z,19.60
2019-05-02T12:08:52.558Z,19.50
2019-05-02T12:11:22.897Z,19.60
2019-05-02T12:13:52.832Z,19.50
2019-05-02T12:16:22.868Z,19.40
2019-05-02T12:18:53.559Z,19.30
2019-05-02T12:21:22.940Z,19.40
2019-05-02T12:23:52.643Z,19.50
2019-05-02T12:26:22.066Z,19.70
2019-05-02T12:28:52.739Z,19.60
2019-05-02T12:31:26.360Z,19.60
2019-05-02T12:33:55.541Z,19.60
2019-05-02T12:36:24.321Z,19.70
2019-05-02T12:38:52.886Z,19.70
2019-05-02T12:41:24.951Z,19.70
2019-05-02T12:43:52.452Z,19.70
2019-05-02T12:46:22.170Z,19.80
2019-05-02T12:48:51.961Z,19.70
2019-05-02T12:51:22.548Z,19.80
2019-05-02T12:53:52.871Z,19.80
2019-05-02T12:56:22.963Z,19.70
2019-05-02T12:58:53.026Z,19.50
2019-05-02T13:01:21.995Z,19.40
2019-05-02T13:03:52.352Z,19.10
2019-05-02T13:06:21.947Z,18.90
2019-05-02T13:08:52.391Z,18.90
2019-05-02T13:11:25.625Z,19.00
2019-05-02T13:13:54.215Z,18.90
2019-05-02T13:16:22.781Z,18.80
2019-05-02T13:18:51.950Z,18.80
2019-05-02T13:21:25.042Z,18.70
2019-05-02T13:24:07.586Z,18.80
2019-05-02T13:26:36.378Z,18.90
2019-05-02T13:29:05.193Z,19.00
2019-05-02T13:31:38.167Z,19.20
2019-05-02T13:34:14.764Z,19.20
2019-05-02T13:36:47.991Z,19.20
2019-05-02T13:39:29.729Z,19.30
2019-05-02T13:41:58.302Z,19.40
2019-05-02T13:44:29.172Z,19.70
2019-05-02T13:46:57.684Z,19.70
2019-05-02T13:49:26.136Z,19.70
2019-05-02T13:51:54.633Z,19.70
2019-05-02T13:54:23.049Z,19.70
2019-05-02T13:56:53.170Z,19.50
2019-05-02T13:59:22.370Z,19.30
2019-05-02T14:01:52.886Z,19.30
2019-05-02T14:04:23.163Z,19.40
2019-05-02T14:06:52.827Z,19.30
2019-05-02T14:09:23.288Z,19.30
2019-05-02T14:11:59.325Z,19.40
2019-05-02T14:14:27.801Z,19.30
2019-05-02T14:16:56.352Z,19.30
2019-05-02T14:19:24.786Z,19.30
2019-05-02T14:21:53.219Z,19.20
2019-05-02T14:24:24.622Z,19.30
2019-05-02T14:26:53.152Z,19.20
2019-05-02T14:29:21.827Z,19.10
2019-05-02T14:31:51.993Z,18.90
2019-05-02T14:34:25.221Z,18.80
2019-05-02T14:36:58.916Z,18.80
2019-05-02T14:39:23.955Z,18.80
2019-05-02T14:41:52.695Z,18.80
2019-05-02T14:44:23.340Z,18.70
2019-05-02T14:46:52.326Z,18.60
2019-05-02T14:49:24.404Z,18.50
2019-05-02T14:51:52.529Z,18.30
2019-05-02T14:54:22.979Z,18.20
2019-05-02T14:57:02.178Z,18.10
2019-05-02T14:59:32.284Z,18.10
2019-05-02T15:02:07.099Z,18.10
2019-05-02T15:04:32.751Z,18.10
2019-05-02T15:07:02.104Z,18.10
2019-05-02T15:09:35.731Z,17.90
2019-05-02T15:12:08.651Z,17.80
2019-05-02T15:14:34.948Z,17.60
2019-05-02T15:17:07.833Z,17.50
2019-05-02T15:19:36.321Z,17.40
2019-05-02T15:22:05.385Z,17.10
2019-05-02T15:24:37.396Z,17.00
2019-05-02T15:27:12.279Z,16.70
2019-05-02T15:29:34.289Z,16.60
2019-05-02T15:32:22.236Z,16.50
2019-05-02T15:35:09.352Z,16.40
2019-05-02T15:37:37.789Z,16.30
2019-05-02T15:42:37.534Z,15.90
2019-05-02T15:45:07.223Z,15.80
2019-05-02T15:47:37.179Z,15.80
2019-05-02T15:50:06.416Z,15.70
2019-05-02T15:52:36.481Z,15.60
2019-05-02T15:55:08.036Z,15.50
2019-05-02T15:57:42.936Z,15.30
2019-05-02T16:00:10.108Z,15.10
2019-05-02T16:02:38.703Z,14.90
2019-05-02T16:05:08.478Z,14.90
2019-05-02T16:07:38.027Z,14.80
2019-05-02T16:10:10.211Z,14.80
2019-05-02T16:12:39.229Z,14.70
2019-05-02T16:15:13.601Z,14.60
2019-05-02T16:17:38.032Z,14.60
2019-05-02T16:20:13.381Z,14.50
2019-05-02T16:22:46.277Z,14.40
2019-05-02T16:25:12.275Z,14.30
2019-05-02T16:27:44.977Z,14.20
2019-05-02T16:30:16.427Z,14.20
2019-05-02T16:32:46.648Z,14.20
2019-05-02T16:35:17.510Z,14.20
2019-05-02T16:37:46.660Z,14.20
2019-05-02T16:40:22.054Z,14.40
2019-05-02T16:42:47.140Z,14.50
2019-05-02T16:45:16.245Z,14.60
2019-05-02T16:47:44.725Z,14.70
2019-05-02T16:50:18.597Z,14.60
2019-05-02T16:52:47.449Z,14.70
2019-05-02T16:55:20.719Z,14.70
2019-05-02T16:57:47.429Z,14.70
2019-05-02T17:00:22.517Z,14.60
2019-05-02T17:02:51.029Z,14.60
2019-05-02T17:05:19.529Z,14.50
2019-05-02T17:08:02.286Z,14.60
2019-05-02T17:10:34.838Z,14.60
2019-05-02T17:13:02.816Z,14.50
2019-05-02T17:15:35.772Z,14.50
2019-05-02T17:18:12.604Z,14.40
2019-05-02T17:20:34.242Z,14.30
2019-05-02T17:23:07.263Z,14.20
2019-05-02T17:25:33.168Z,14.10
2019-05-02T17:28:06.987Z,13.90
2019-05-02T17:30:38.953Z,13.90
2019-05-02T17:33:07.117Z,13.80
2019-05-02T17:35:33.947Z,13.90
2019-05-02T17:38:02.693Z,13.80
2019-05-02T17:40:31.270Z,13.80
2019-05-02T17:43:02.906Z,13.70
2019-05-02T17:45:33.389Z,13.60
2019-05-02T17:48:00.367Z,13.50
2019-05-02T17:50:43.725Z,13.60
2019-05-02T17:53:13.811Z,13.50
2019-05-02T17:55:44.354Z,13.50
2019-05-02T17:58:14.158Z,13.40
2019-05-02T18:00:47.480Z,13.30
2019-05-02T18:03:15.509Z,13.30
2019-05-02T18:05:44.327Z,13.30
2019-05-02T18:08:14.770Z,13.20
2019-05-02T18:10:42.940Z,13.20
2019-05-02T18:13:12.188Z,13.10
2019-05-02T18:15:41.685Z,13.10
2019-05-02T18:18:10.373Z,13.10
2019-05-02T18:20:42.907Z,13.00
2019-05-02T18:23:09.109Z,13.00
2019-05-02T18:25:37.567Z,13.00
2019-05-02T18:28:06.001Z,13.00
2019-05-02T18:30:34.436Z,13.00
2019-05-02T18:33:07.051Z,13.00
2019-05-02T18:35:37.385Z,13.00
2019-05-02T18:38:04.496Z,13.00
2019-05-02T18:40:33.001Z,12.90
2019-05-02T18:43:05.149Z,12.80
2019-05-02T18:45:31.971Z,12.90
2019-05-02T18:48:05.378Z,12.90
2019-05-02T18:50:36.773Z,12.80
2019-05-02T18:53:05.728Z,12.80
2019-05-02T18:55:34.717Z,12.70
2019-05-02T18:58:05.411Z,12.70
2019-05-02T19:00:38.355Z,12.60
2019-05-02T19:03:07.478Z,12.50
2019-05-02T19:05:36.653Z,12.40
2019-05-02T19:08:05.405Z,12.30
2019-05-02T19:10:37.096Z,12.20
2019-05-02T19:13:06.073Z,12.20
2019-05-02T19:15:39.695Z,12.20
2019-05-02T19:18:05.600Z,12.20
2019-05-02T19:20:37.205Z,12.20
2019-05-02T19:23:05.805Z,12.20
2019-05-02T19:25:34.253Z,12.20
2019-05-02T19:28:05.829Z,12.20
2019-05-02T19:30:38.740Z,12.20
2019-05-02T19:33:08.045Z,12.20
2019-05-02T19:35:37.545Z,12.20
2019-05-02T19:38:07.011Z,12.20
2019-05-02T19:40:35.438Z,12.20
2019-05-02T19:43:07.639Z,12.10
2019-05-02T19:45:34.165Z,12.00
2019-05-02T19:48:02.821Z,12.00
2019-05-02T19:50:43.066Z,11.90
2019-05-02T19:53:14.979Z,11.90
2019-05-02T19:55:38.506Z,11.90
2019-05-02T19:58:07.188Z,11.70
2019-05-02T20:00:42.245Z,11.70
2019-05-02T20:03:08.236Z,11.70
2019-05-02T20:05:36.723Z,11.60
2019-05-02T20:08:05.508Z,11.60
2019-05-02T20:10:34.099Z,11.60
2019-05-02T20:13:03.153Z,11.60
2019-05-02T20:15:33.432Z,11.70
2019-05-02T20:18:04.615Z,11.60
2019-05-02T20:21:02.643Z,11.60
2019-05-02T20:23:35.373Z,11.70
2019-05-02T20:26:01.497Z,11.70
2019-05-02T20:28:31.647Z,11.70
2019-05-02T20:31:01.773Z,11.70
2019-05-02T20:33:32.443Z,11.70
2019-05-02T20:36:01.812Z,11.70
2019-05-02T20:38:32.534Z,11.70
2019-05-02T20:41:02.993Z,11.70
2019-05-02T20:43:32.295Z,11.70
2019-05-02T20:46:02.653Z,11.60
2019-05-02T20:48:32.185Z,11.60
2019-05-02T20:51:02.703Z,11.60
2019-05-02T20:53:34.054Z,11.60
2019-05-02T20:56:01.929Z,11.60
2019-05-02T20:58:33.497Z,11.60
2019-05-02T21:01:08.557Z,11.60
2019-05-02T21:03:32.246Z,11.50
2019-05-02T21:06:08.401Z,11.50
2019-05-02T21:08:44.226Z,11.60
2019-05-02T21:11:13.412Z,11.50
2019-05-02T21:13:41.937Z,11.50
2019-05-02T21:16:11.962Z,11.50
2019-05-02T21:18:42.307Z,11.60
2019-05-02T21:21:12.644Z,11.50
2019-05-02T21:23:47.041Z,11.50
2019-05-02T21:26:11.484Z,11.50
2019-05-02T21:28:40.054Z,11.50
2019-05-02T21:31:08.499Z,11.40
2019-05-02T21:33:39.177Z,11.40
2019-05-02T21:36:08.050Z,11.40
2019-05-02T21:38:36.857Z,11.50
2019-05-02T21:41:08.381Z,11.40
2019-05-02T21:43:36.800Z,11.50
2019-05-02T21:46:05.394Z,11.40
2019-05-02T21:48:33.888Z,11.50
2019-05-02T21:51:20.164Z,11.50
2019-05-02T21:54:05.271Z,11.50
2019-05-02T21:56:43.062Z,11.40
2019-05-02T21:59:12.526Z,11.40
2019-05-02T22:01:45.688Z,11.50
2019-05-02T22:04:14.347Z,11.40
2019-05-02T22:06:42.904Z,11.40
2019-05-02T22:09:12.410Z,11.40
2019-05-02T22:11:42.904Z,11.30
2019-05-02T22:14:13.230Z,11.30
2019-05-02T22:16:42.241Z,11.30
2019-05-02T22:19:10.809Z,11.30
2019-05-02T22:21:39.269Z,11.30
2019-05-02T22:24:11.446Z,11.30
2019-05-02T22:26:43.356Z,11.40
2019-05-02T22:29:08.262Z,11.40
2019-05-02T22:31:36.712Z,11.40
2019-05-02T22:34:06.466Z,11.40
2019-05-02T22:36:34.927Z,11.40
2019-05-02T22:39:06.040Z,11.30
2019-05-02T22:41:34.537Z,11.30
2019-05-02T22:44:02.979Z,11.30
2019-05-02T22:46:43.228Z,11.30
2019-05-02T22:49:15.309Z,11.30
2019-05-02T22:51:44.348Z,11.30
2019-05-02T22:54:26.976Z,11.30
2019-05-02T22:56:45.048Z,11.20
2019-05-02T22:59:13.489Z,11.20
2019-05-02T23:01:42.331Z,11.20
2019-05-02T23:04:12.766Z,11.20
2019-05-02T23:06:43.941Z,11.20
2019-05-02T23:09:12.742Z,11.20
2019-05-02T23:11:42.534Z,11.20
2019-05-02T23:14:13.129Z,11.20
2019-05-02T23:16:42.640Z,11.20
2019-05-02T23:19:12.267Z,11.20
2019-05-02T23:21:42.168Z,11.20
2019-05-02T23:24:14.575Z,11.10
2019-05-02T23:26:51.831Z,11.20
2019-05-02T23:29:22.434Z,11.20
2019-05-02T23:31:51.791Z,11.20
2019-05-02T23:34:23.352Z,11.30
2019-05-02T23:36:52.286Z,11.30
2019-05-02T23:39:20.917Z,11.30
2019-05-02T23:41:49.316Z,11.20
2019-05-02T23:44:17.748Z,11.20
2019-05-02T23:46:46.171Z,11.30
2019-05-02T23:49:14.688Z,11.30
2019-05-02T23:51:43.118Z,11.30
2019-05-02T23:54:12.953Z,11.20
2019-05-02T23:56:43.041Z,11.20
2019-05-02T23:59:12.117Z,11.20
